createdAt,value
2023-05-21T00:02:01.633Z,7.60
2023-05-21T00:04:35.385Z,7.23
2023-05-21T00:07:09.794Z,7.27
2023-05-21T00:09:44.005Z,7.07
2023-05-21T00:12:19.404Z,6.77
2023-05-21T00:14:54.602Z,8.00
2023-05-21T00:17:28.731Z,9.50
2023-05-21T00:20:05.959Z,8.33
2023-05-21T00:22:40.685Z,8.13
2023-05-21T00:25:15.706Z,7.63
2023-05-21T00:27:50.902Z,7.00
2023-05-21T00:30:25.775Z,7.37
2023-05-21T00:33:03.064Z,8.60
2023-05-21T00:35:37.700Z,5.93
2023-05-21T00:38:11.455Z,7.10
2023-05-21T00:40:46.512Z,6.43
2023-05-21T00:43:26.707Z,7.53
2023-05-21T00:46:01.099Z,5.90
2023-05-21T00:48:35.700Z,6.33
2023-05-21T00:51:09.891Z,7.97
2023-05-21T00:53:44.889Z,6.30
2023-05-21T00:56:19.867Z,6.57
2023-05-21T00:58:58.450Z,6.73
2023-05-21T01:01:37.009Z,7.40
2023-05-21T01:04:11.517Z,7.60
2023-05-21T01:06:45.080Z,5.40
2023-05-21T01:09:19.571Z,6.07
2023-05-21T01:11:57.239Z,6.97
2023-05-21T01:14:35.126Z,5.47
2023-05-21T01:17:10.767Z,6.40
2023-05-21T01:19:46.621Z,5.77
2023-05-21T01:22:25.307Z,5.77
2023-05-21T01:25:07.356Z,4.90
2023-05-21T01:27:42.479Z,5.47
2023-05-21T01:30:18.324Z,5.03
2023-05-21T01:33:03.546Z,5.23
2023-05-21T01:35:45.003Z,5.50
2023-05-21T01:38:27.417Z,6.63
2023-05-21T01:41:12.325Z,5.30
2023-05-21T01:43:49.097Z,5.33
2023-05-21T01:46:30.672Z,5.80
2023-05-21T01:49:06.366Z,7.23
2023-05-21T01:51:41.326Z,5.20
2023-05-21T01:54:15.425Z,5.03
2023-05-21T01:56:51.214Z,5.30
2023-05-21T01:59:25.635Z,4.43
2023-05-21T02:02:01.111Z,4.97
2023-05-21T02:04:35.097Z,5.40
2023-05-21T02:07:10.459Z,4.37
2023-05-21T02:09:44.579Z,5.03
2023-05-21T02:12:19.761Z,4.80
2023-05-21T02:14:53.528Z,5.47
2023-05-21T02:17:31.540Z,4.73
2023-05-21T02:20:11.908Z,5.87
2023-05-21T02:22:50.261Z,4.40
2023-05-21T02:25:24.360Z,5.33
2023-05-21T02:27:59.601Z,4.73
2023-05-21T02:30:33.526Z,6.17
2023-05-21T02:33:09.332Z,5.70
2023-05-21T02:35:44.012Z,4.20
2023-05-21T02:38:19.811Z,5.00
2023-05-21T02:40:53.749Z,4.67
2023-05-21T02:43:30.068Z,4.60
2023-05-21T02:46:04.217Z,4.43
2023-05-21T02:48:38.973Z,7.83
2023-05-21T02:51:13.883Z,5.10
2023-05-21T02:53:49.759Z,4.27
2023-05-21T02:56:23.571Z,4.70
2023-05-21T02:58:58.715Z,3.87
2023-05-21T03:01:32.865Z,4.83
2023-05-21T03:04:06.802Z,4.77
2023-05-21T03:06:40.752Z,4.40
2023-05-21T03:09:14.577Z,4.87
2023-05-21T03:11:48.806Z,4.85
2023-05-21T03:14:25.808Z,4.57
2023-05-21T03:16:59.479Z,3.83
2023-05-21T03:19:34.948Z,4.57
2023-05-21T03:22:09.267Z,5.20
2023-05-21T03:24:45.557Z,4.20
2023-05-21T03:27:19.274Z,4.57
2023-05-21T03:29:56.180Z,4.50
2023-05-21T03:32:29.768Z,4.27
2023-05-21T03:35:03.860Z,4.77
2023-05-21T03:37:38.172Z,4.37
2023-05-21T03:40:13.497Z,4.43
2023-05-21T03:42:47.584Z,4.57
2023-05-21T03:45:23.495Z,4.73
2023-05-21T03:47:57.228Z,4.33
2023-05-21T03:50:32.725Z,4.50
2023-05-21T03:53:06.613Z,5.07
2023-05-21T03:55:40.556Z,4.87
2023-05-21T03:58:14.561Z,5.20
2023-05-21T04:00:50.647Z,5.43
2023-05-21T04:03:24.654Z,4.87
2023-05-21T04:05:58.455Z,5.17
2023-05-21T04:08:33.466Z,5.63
2023-05-21T04:11:07.526Z,4.23
2023-05-21T04:13:42.842Z,7.77
2023-05-21T04:16:19.475Z,4.57
2023-05-21T04:18:55.777Z,4.33
2023-05-21T04:21:32.336Z,4.43
2023-05-21T04:24:06.872Z,4.43
2023-05-21T04:26:42.561Z,5.30
2023-05-21T04:29:18.255Z,4.27
2023-05-21T04:31:53.794Z,5.57
2023-05-21T04:34:27.388Z,4.57
2023-05-21T04:37:02.522Z,4.80
2023-05-21T04:39:36.444Z,6.03
2023-05-21T04:42:11.816Z,4.20
2023-05-21T04:44:45.690Z,5.30
2023-05-21T04:47:20.962Z,4.50
2023-05-21T04:49:54.946Z,4.73
2023-05-21T04:52:29.437Z,4.30
2023-05-21T04:55:03.476Z,6.17
2023-05-21T04:57:37.501Z,5.10
2023-05-21T05:00:13.134Z,5.10
2023-05-21T05:02:49.727Z,5.60
2023-05-21T05:05:23.501Z,4.07
2023-05-21T05:07:58.255Z,4.70
2023-05-21T05:10:33.657Z,4.70
2023-05-21T05:13:07.894Z,4.50
2023-05-21T05:15:42.280Z,4.83
2023-05-21T05:18:17.995Z,5.20
2023-05-21T05:20:51.816Z,5.17
2023-05-21T05:23:26.701Z,5.03
2023-05-21T05:26:02.005Z,5.03
2023-05-21T05:28:35.678Z,6.37
2023-05-21T05:31:11.042Z,5.53
2023-05-21T05:33:46.535Z,5.77
2023-05-21T05:36:21.644Z,4.10
2023-05-21T05:38:55.725Z,4.90
2023-05-21T05:41:29.913Z,4.37
2023-05-21T05:44:05.487Z,5.27
2023-05-21T05:46:40.290Z,5.17
2023-05-21T05:49:15.483Z,5.67
2023-05-21T05:51:49.499Z,4.70
2023-05-21T05:54:25.168Z,8.63
2023-05-21T05:56:58.898Z,5.30
2023-05-21T05:59:34.494Z,5.53
2023-05-21T06:02:08.829Z,5.53
2023-05-21T06:04:44.664Z,6.07
2023-05-21T06:07:18.572Z,4.93
2023-05-21T06:09:53.327Z,5.73
2023-05-21T06:12:27.665Z,6.07
2023-05-21T06:15:01.951Z,5.37
2023-05-21T06:17:36.266Z,6.33
2023-05-21T06:20:13.567Z,6.50
2023-05-21T06:22:49.252Z,5.03
2023-05-21T06:25:23.400Z,6.37
2023-05-21T06:27:57.868Z,5.90
2023-05-21T06:30:32.089Z,5.10
2023-05-21T06:33:05.735Z,5.77
2023-05-21T06:35:41.270Z,8.77
2023-05-21T06:38:15.574Z,6.27
2023-05-21T06:40:50.516Z,6.63
2023-05-21T06:43:25.474Z,6.43
2023-05-21T06:45:59.380Z,5.50
2023-05-21T06:48:33.141Z,5.53
2023-05-21T06:51:08.284Z,6.70
2023-05-21T06:53:42.395Z,6.00
2023-05-21T06:56:15.857Z,7.00
2023-05-21T06:58:50.818Z,6.57
2023-05-21T07:01:25.229Z,7.43
2023-05-21T07:03:59.179Z,5.87
2023-05-21T07:06:35.165Z,6.40
2023-05-21T07:09:08.986Z,5.80
2023-05-21T07:11:42.941Z,6.37
2023-05-21T07:14:16.856Z,5.60
2023-05-21T07:16:50.984Z,5.97
2023-05-21T07:19:25.018Z,6.83
2023-05-21T07:22:00.168Z,6.20
2023-05-21T07:24:34.133Z,7.70
2023-05-21T07:27:17.732Z,6.10
2023-05-21T07:29:58.910Z,6.80
2023-05-21T07:32:32.704Z,5.60
2023-05-21T07:35:08.220Z,5.63
2023-05-21T07:37:43.902Z,6.67
2023-05-21T07:40:17.782Z,5.73
2023-05-21T07:42:51.196Z,7.70
2023-05-21T07:45:25.117Z,6.37
2023-05-21T07:47:59.032Z,6.90
2023-05-21T07:50:34.694Z,6.77
2023-05-21T07:53:10.664Z,6.93
2023-05-21T07:55:48.111Z,7.70
2023-05-21T07:58:23.793Z,6.97
2023-05-21T08:00:59.321Z,6.30
2023-05-21T08:03:33.103Z,8.77
2023-05-21T08:06:06.801Z,5.87
2023-05-21T08:08:41.848Z,8.00
2023-05-21T08:11:16.071Z,7.23
2023-05-21T08:13:50.063Z,6.37
2023-05-21T08:16:24.842Z,6.83
2023-05-21T08:19:00.163Z,8.73
2023-05-21T08:21:34.624Z,7.50
2023-05-21T08:24:10.133Z,7.03
2023-05-21T08:26:45.094Z,8.40
2023-05-21T08:29:19.074Z,6.70
2023-05-21T08:31:54.531Z,6.23
2023-05-21T08:34:28.999Z,8.13
2023-05-21T08:37:02.363Z,7.20
2023-05-21T08:39:37.826Z,7.50
2023-05-21T08:42:36.232Z,7.03
2023-05-21T08:45:15.181Z,7.30
2023-05-21T08:47:50.189Z,7.80
2023-05-21T08:50:27.886Z,6.93
2023-05-21T08:53:05.643Z,8.93
2023-05-21T08:55:51.688Z,6.80
2023-05-21T08:58:26.671Z,9.13
2023-05-21T09:01:01.144Z,8.47
2023-05-21T09:03:40.108Z,7.83
2023-05-21T09:06:15.607Z,7.80
2023-05-21T09:09:00.820Z,7.83
2023-05-21T09:11:38.782Z,8.23
2023-05-21T09:14:16.691Z,8.50
2023-05-21T09:16:51.282Z,8.83
2023-05-21T09:19:26.943Z,7.90
2023-05-21T09:22:04.950Z,8.33
2023-05-21T09:24:39.066Z,7.77
2023-05-21T09:27:21.450Z,7.60
2023-05-21T09:29:55.846Z,8.43
2023-05-21T09:32:30.798Z,11.20
2023-05-21T09:35:11.569Z,8.13
2023-05-21T09:37:50.960Z,8.50
2023-05-21T09:40:26.595Z,8.18
2023-05-21T09:43:03.709Z,8.80
2023-05-21T09:45:38.111Z,9.18
2023-05-21T09:48:13.683Z,8.13
2023-05-21T09:50:48.375Z,8.45
2023-05-21T09:53:24.479Z,7.68
2023-05-21T09:56:01.654Z,8.57
2023-05-21T09:58:39.451Z,9.10
2023-05-21T10:01:14.565Z,8.57
2023-05-21T10:03:56.576Z,8.40
2023-05-21T10:06:34.636Z,8.75
2023-05-21T10:09:13.713Z,8.27
2023-05-21T10:11:52.012Z,10.65
2023-05-21T10:14:32.105Z,8.45
2023-05-21T10:17:08.689Z,8.77
2023-05-21T10:19:45.512Z,8.48
2023-05-21T10:22:21.470Z,10.40
2023-05-21T10:24:58.208Z,11.02
2023-05-21T10:27:34.612Z,7.43
2023-05-21T10:30:14.444Z,8.95
2023-05-21T10:32:50.258Z,10.52
2023-05-21T10:35:28.659Z,9.15
2023-05-21T10:38:06.591Z,7.55
2023-05-21T10:40:41.520Z,9.45
2023-05-21T10:44:05.477Z,8.82
2023-05-21T10:47:41.195Z,8.30
2023-05-21T10:50:46.389Z,7.25
2023-05-21T10:53:39.303Z,8.73
2023-05-21T10:56:26.129Z,8.75
2023-05-21T10:59:22.408Z,8.73
2023-05-21T11:01:59.789Z,8.07
2023-05-21T11:04:39.996Z,9.63
2023-05-21T11:07:15.379Z,8.80
2023-05-21T11:09:52.468Z,7.88
2023-05-21T11:12:27.735Z,9.55
2023-05-21T11:15:02.338Z,10.13
2023-05-21T11:17:42.553Z,11.07
2023-05-21T11:20:22.141Z,8.82
2023-05-21T11:22:58.403Z,9.40
2023-05-21T11:25:35.863Z,7.88
2023-05-21T11:28:09.862Z,9.68
2023-05-21T11:31:05.674Z,11.52
2023-05-21T11:33:40.165Z,10.07
2023-05-21T11:36:15.913Z,8.02
2023-05-21T11:39:12.090Z,8.65
2023-05-21T11:41:58.283Z,9.77
2023-05-21T11:44:43.704Z,8.95
2023-05-21T11:47:19.786Z,8.88
2023-05-21T11:49:54.850Z,9.25
2023-05-21T11:52:31.798Z,9.20
2023-05-21T11:55:07.855Z,8.27
2023-05-21T11:57:48.296Z,8.85
2023-05-21T12:00:22.514Z,8.50
2023-05-21T12:02:57.183Z,10.55
2023-05-21T12:05:31.636Z,9.00
2023-05-21T12:08:08.953Z,8.57
2023-05-21T12:10:44.434Z,10.60
2023-05-21T12:13:20.197Z,9.32
2023-05-21T12:15:58.541Z,10.05
2023-05-21T12:18:32.861Z,9.45
2023-05-21T12:21:11.783Z,11.02
2023-05-21T12:23:58.597Z,9.25
2023-05-21T12:26:35.613Z,9.82
2023-05-21T12:29:09.701Z,11.27
2023-05-21T12:31:52.531Z,9.85
2023-05-21T12:34:48.778Z,9.32
2023-05-21T12:37:25.427Z,10.02
2023-05-21T12:40:05.156Z,9.80
2023-05-21T12:42:40.272Z,10.55
2023-05-21T12:45:15.379Z,9.30
2023-05-21T12:47:56.691Z,9.98
2023-05-21T12:50:30.790Z,10.02
2023-05-21T12:53:04.973Z,9.63
2023-05-21T12:55:40.714Z,10.50
2023-05-21T12:58:17.507Z,10.15
2023-05-21T13:00:51.417Z,9.40
2023-05-21T13:03:28.246Z,9.90
2023-05-21T13:06:02.526Z,9.40
2023-05-21T13:08:37.796Z,9.68
2023-05-21T13:11:15.422Z,8.70
2023-05-21T13:13:49.903Z,8.75
2023-05-21T13:16:32.536Z,9.13
2023-05-21T13:19:08.391Z,9.10
2023-05-21T13:21:42.438Z,7.80
2023-05-21T13:24:16.759Z,8.63
2023-05-21T13:26:53.397Z,9.82
2023-05-21T13:29:27.354Z,9.05
2023-05-21T13:32:01.602Z,8.63
2023-05-21T13:34:35.614Z,12.27
2023-05-21T13:37:10.462Z,8.25
2023-05-21T13:39:44.438Z,8.77
2023-05-21T13:42:19.719Z,9.13
2023-05-21T13:44:53.527Z,8.85
2023-05-21T13:47:27.672Z,8.32
2023-05-21T13:50:02.761Z,8.98
2023-05-21T13:52:37.303Z,8.35
2023-05-21T13:55:12.204Z,9.85
2023-05-21T13:57:49.524Z,9.35
2023-05-21T14:00:23.472Z,7.72
2023-05-21T14:02:57.726Z,8.40
2023-05-21T14:05:31.761Z,9.95
2023-05-21T14:08:08.513Z,8.68
2023-05-21T14:10:42.634Z,8.10
2023-05-21T14:13:20.253Z,8.00
2023-05-21T14:15:56.849Z,8.02
2023-05-21T14:18:30.821Z,8.00
2023-05-21T14:21:06.163Z,7.80
2023-05-21T14:23:40.124Z,8.85
2023-05-21T14:26:17.402Z,8.82
2023-05-21T14:28:52.961Z,8.85
2023-05-21T14:31:31.051Z,8.45
2023-05-21T14:34:09.246Z,8.35
2023-05-21T14:36:43.239Z,9.45
2023-05-21T14:39:17.436Z,8.40
2023-05-21T14:41:54.276Z,7.68
2023-05-21T14:44:30.288Z,7.35
2023-05-21T14:47:04.857Z,6.82
2023-05-21T14:49:39.739Z,8.75
2023-05-21T14:52:14.143Z,7.63
2023-05-21T14:54:48.047Z,10.73
2023-05-21T14:57:24.428Z,8.10
2023-05-21T14:59:59.993Z,8.35
2023-05-21T15:02:34.246Z,7.95
2023-05-21T15:05:11.395Z,7.88
2023-05-21T15:07:45.731Z,7.93
2023-05-21T15:10:22.650Z,9.57
2023-05-21T15:12:57.724Z,9.32
2023-05-21T15:15:32.990Z,8.13
2023-05-21T15:18:06.649Z,7.93
2023-05-21T15:20:40.532Z,9.07
2023-05-21T15:23:17.481Z,8.38
2023-05-21T15:25:54.440Z,9.02
2023-05-21T15:28:28.650Z,8.75
2023-05-21T15:31:06.710Z,8.65
2023-05-21T15:33:40.098Z,8.50
2023-05-21T15:36:14.039Z,8.57
2023-05-21T15:38:48.472Z,8.35
2023-05-21T15:41:23.780Z,8.23
2023-05-21T15:43:57.624Z,8.00
2023-05-21T15:46:33.265Z,7.85
2023-05-21T15:49:07.324Z,8.13
2023-05-21T15:51:42.895Z,7.60
2023-05-21T15:54:16.625Z,6.55
2023-05-21T15:56:52.748Z,7.45
2023-05-21T15:59:27.869Z,8.02
2023-05-21T16:02:04.703Z,6.93
2023-05-21T16:04:38.896Z,6.43
2023-05-21T16:07:13.355Z,8.27
2023-05-21T16:09:48.242Z,8.05
2023-05-21T16:12:22.456Z,6.95
2023-05-21T16:14:59.936Z,7.97
2023-05-21T16:17:35.460Z,7.53
2023-05-21T16:20:11.309Z,7.55
2023-05-21T16:22:46.952Z,8.10
2023-05-21T16:25:21.046Z,8.07
2023-05-21T16:27:55.240Z,8.65
2023-05-21T16:30:29.237Z,8.63
2023-05-21T16:33:05.085Z,8.48
2023-05-21T16:35:39.316Z,7.47
2023-05-21T16:38:16.729Z,8.40
2023-05-21T16:40:50.796Z,7.88
2023-05-21T16:43:25.042Z,8.57
2023-05-21T16:45:58.723Z,7.75
2023-05-21T16:48:42.676Z,8.32
2023-05-21T16:51:17.336Z,9.88
2023-05-21T16:53:52.359Z,9.45
2023-05-21T16:56:30.288Z,8.77
2023-05-21T16:59:04.474Z,8.35
2023-05-21T17:01:39.445Z,9.05
2023-05-21T17:04:22.673Z,8.82
2023-05-21T17:06:57.341Z,7.68
2023-05-21T17:09:31.636Z,8.45
2023-05-21T17:12:06.237Z,8.43
2023-05-21T17:14:41.605Z,9.07
2023-05-21T17:17:16.351Z,9.60
2023-05-21T17:19:51.598Z,9.02
2023-05-21T17:22:25.946Z,8.65
2023-05-21T17:24:59.845Z,8.60
2023-05-21T17:27:33.613Z,9.73
2023-05-21T17:30:10.440Z,9.13
2023-05-21T17:32:45.432Z,9.07
2023-05-21T17:35:21.643Z,8.82
2023-05-21T17:37:55.343Z,8.20
2023-05-21T17:40:30.112Z,8.20
2023-05-21T17:43:05.191Z,8.15
2023-05-21T17:45:40.502Z,8.40
2023-05-21T17:48:14.340Z,8.85
2023-05-21T17:50:49.829Z,8.40
2023-05-21T17:53:24.470Z,8.80
2023-05-21T17:55:58.468Z,9.43
2023-05-21T17:58:33.715Z,8.32
2023-05-21T18:01:08.947Z,8.65
2023-05-21T18:03:43.318Z,8.52
2023-05-21T18:06:22.182Z,8.75
2023-05-21T18:08:57.657Z,9.38
2023-05-21T18:11:35.259Z,8.48
2023-05-21T18:14:11.903Z,8.80
2023-05-21T18:16:46.150Z,8.23
2023-05-21T18:19:20.084Z,8.65
2023-05-21T18:21:59.187Z,8.75
2023-05-21T18:24:37.626Z,7.72
2023-05-21T18:27:12.441Z,9.77
2023-05-21T18:29:50.414Z,9.20
2023-05-21T18:32:28.991Z,8.68
2023-05-21T18:35:06.105Z,8.02
2023-05-21T18:37:44.397Z,7.78
2023-05-21T18:40:18.374Z,8.80
2023-05-21T18:42:52.719Z,9.75
2023-05-21T18:45:27.101Z,8.43
2023-05-21T18:48:03.401Z,9.63
2023-05-21T18:50:39.117Z,9.15
2023-05-21T18:53:15.758Z,8.48
2023-05-21T18:55:49.753Z,8.77
2023-05-21T18:58:23.979Z,8.10
2023-05-21T19:00:57.593Z,9.07
2023-05-21T19:03:32.816Z,8.35
2023-05-21T19:06:07.434Z,8.75
2023-05-21T19:08:42.666Z,8.80
2023-05-21T19:11:17.768Z,8.98
2023-05-21T19:13:52.747Z,8.32
2023-05-21T19:16:30.000Z,8.35
2023-05-21T19:19:06.314Z,7.95
2023-05-21T19:21:40.400Z,8.40
2023-05-21T19:24:16.941Z,8.02
2023-05-21T19:26:50.726Z,8.18
2023-05-21T19:29:25.135Z,8.82
2023-05-21T19:31:59.828Z,8.80
2023-05-21T19:34:34.861Z,8.45
2023-05-21T19:37:11.772Z,8.43
2023-05-21T19:39:50.399Z,8.75
2023-05-21T19:42:27.176Z,9.00
2023-05-21T19:45:01.445Z,8.65
2023-05-21T19:47:35.581Z,9.82
2023-05-21T19:50:13.748Z,8.57
2023-05-21T19:52:47.508Z,8.77
2023-05-21T19:55:22.840Z,9.15
2023-05-21T19:57:57.150Z,9.57
2023-05-21T20:00:30.935Z,9.23
2023-05-21T20:03:04.928Z,9.57
2023-05-21T20:05:38.734Z,9.55
2023-05-21T20:08:15.275Z,9.02
2023-05-21T20:10:52.004Z,9.20
2023-05-21T20:13:26.348Z,9.85
2023-05-21T20:16:00.453Z,10.77
2023-05-21T20:18:34.430Z,11.07
2023-05-21T20:21:09.021Z,11.98
2023-05-21T20:23:42.943Z,9.95
2023-05-21T20:26:20.227Z,10.70
2023-05-21T20:28:55.465Z,10.05
2023-05-21T20:31:29.479Z,10.30
2023-05-21T20:34:07.468Z,9.52
2023-05-21T20:36:42.213Z,9.55
2023-05-21T20:39:15.847Z,8.93
2023-05-21T20:41:54.018Z,7.97
2023-05-21T20:44:28.856Z,7.18
2023-05-21T20:47:06.168Z,6.88
2023-05-21T20:49:40.155Z,7.18
2023-05-21T20:52:14.699Z,6.45
2023-05-21T20:54:49.689Z,5.75
2023-05-21T20:57:26.251Z,5.88
2023-05-21T21:00:01.212Z,6.03
2023-05-21T21:02:35.389Z,6.10
2023-05-21T21:05:10.756Z,5.90
2023-05-21T21:07:46.003Z,5.65
2023-05-21T21:10:20.010Z,6.45
2023-05-21T21:12:55.109Z,5.47
2023-05-21T21:15:28.922Z,5.32
2023-05-21T21:18:02.577Z,5.95
2023-05-21T21:20:37.478Z,5.63
2023-05-21T21:23:12.035Z,5.72
2023-05-21T21:25:47.046Z,6.57
2023-05-21T21:28:22.280Z,5.72
2023-05-21T21:30:56.508Z,5.57
2023-05-21T21:33:31.120Z,5.18
2023-05-21T21:36:05.512Z,6.45
2023-05-21T21:38:40.011Z,5.93
2023-05-21T21:41:14.380Z,5.07
2023-05-21T21:43:49.902Z,6.93
2023-05-21T21:46:23.479Z,6.28
2023-05-21T21:48:57.643Z,5.65
2023-05-21T21:51:31.700Z,5.83
2023-05-21T21:54:06.006Z,6.00
2023-05-21T21:56:40.124Z,6.03
2023-05-21T21:59:17.188Z,5.50
2023-05-21T22:01:51.322Z,6.03
2023-05-21T22:04:24.999Z,5.55
2023-05-21T22:07:00.421Z,5.50
2023-05-21T22:09:34.490Z,5.72
2023-05-21T22:12:09.442Z,5.13
2023-05-21T22:14:45.122Z,5.50
2023-05-21T22:17:24.274Z,4.90
2023-05-21T22:19:59.001Z,5.40
2023-05-21T22:22:32.809Z,6.07
2023-05-21T22:25:09.848Z,6.35
2023-05-21T22:27:43.732Z,5.00
2023-05-21T22:30:19.445Z,5.90
2023-05-21T22:32:52.988Z,6.32
2023-05-21T22:35:27.165Z,5.07
2023-05-21T22:38:02.123Z,6.05
2023-05-21T22:40:36.363Z,6.03
2023-05-21T22:43:09.967Z,6.10
2023-05-21T22:45:45.450Z,5.60
2023-05-21T22:48:22.240Z,6.65
2023-05-21T22:50:58.173Z,5.95
2023-05-21T22:53:33.003Z,6.07
2023-05-21T22:56:07.536Z,5.45
2023-05-21T22:58:42.512Z,6.65
2023-05-21T23:01:17.697Z,6.15
2023-05-21T23:03:52.118Z,5.90
2023-05-21T23:06:26.207Z,7.47
2023-05-21T23:09:00.277Z,6.22
2023-05-21T23:11:34.620Z,6.53
2023-05-21T23:14:08.462Z,6.70
2023-05-21T23:16:44.288Z,6.30
2023-05-21T23:19:18.351Z,6.63
2023-05-21T23:21:53.201Z,6.03
2023-05-21T23:24:27.103Z,6.23
2023-05-21T23:27:03.162Z,6.00
2023-05-21T23:29:37.365Z,5.78
2023-05-21T23:32:12.874Z,6.65
2023-05-21T23:34:48.631Z,6.05
2023-05-21T23:37:24.986Z,5.82
2023-05-21T23:39:58.879Z,7.45
2023-05-21T23:42:34.704Z,6.10
2023-05-21T23:45:09.684Z,6.20
2023-05-21T23:47:45.415Z,6.50
2023-05-21T23:50:19.164Z,6.13
2023-05-21T23:52:53.220Z,6.40
2023-05-21T23:55:28.238Z,6.60
2023-05-21T23:58:04.677Z,7.10
